createdAt,value
2018-06-28T00:03:41.470Z,6.6
2018-06-28T00:08:43.453Z,9.7
2018-06-28T00:13:45.969Z,5.7
2018-06-28T00:18:48.007Z,8
2018-06-28T00:23:51.576Z,10.2
2018-06-28T00:28:52.596Z,7.8
2018-06-28T00:33:55.988Z,8.6
2018-06-28T00:38:57.195Z,9.8
2018-06-28T00:43:59.440Z,8.9
2018-06-28T00:49:01.834Z,7.2
2018-06-28T00:54:04.188Z,11.3
2018-06-28T00:59:06.340Z,10.6
2018-06-28T01:04:08.607Z,6
2018-06-28T01:09:12.505Z,7.7
2018-06-28T01:14:13.339Z,7.2
2018-06-28T01:19:15.585Z,16
2018-06-28T01:24:17.859Z,8.9
2018-06-28T01:29:20.116Z,8.1
2018-06-28T01:34:22.533Z,10.9
2018-06-28T01:39:24.641Z,7.4
2018-06-28T01:44:27.130Z,8.6
2018-06-28T01:49:29.202Z,8.9
2018-06-28T01:54:31.790Z,9.4
2018-06-28T01:59:34.041Z,13
2018-06-28T02:04:36.196Z,11.1
2018-06-28T02:09:38.505Z,9.1
2018-06-28T02:14:41.910Z,8.8
2018-06-28T02:19:43.115Z,9.1
2018-06-28T02:24:45.268Z,9.4
2018-06-28T02:29:47.627Z,10.6
2018-06-28T02:34:49.972Z,10.7
2018-06-28T02:39:52.372Z,11.7
2018-06-28T02:44:54.465Z,10.6
2018-06-28T02:49:56.790Z,11.7
2018-06-28T02:54:59.260Z,8.7
2018-06-28T03:00:01.411Z,9.4
2018-06-28T03:05:03.691Z,10.4
2018-06-28T03:10:06.021Z,8.9
2018-06-28T03:15:08.256Z,12.4
2018-06-28T03:20:10.623Z,7.2
2018-06-28T03:25:12.952Z,11.4
2018-06-28T03:30:15.227Z,12.1
2018-06-28T03:35:18.871Z,11.1
2018-06-28T03:40:19.867Z,9.7
2018-06-28T03:45:22.091Z,9.2
2018-06-28T03:50:24.482Z,12.9
2018-06-28T03:55:26.684Z,8.6
2018-06-28T04:00:30.302Z,9.6
2018-06-28T04:05:31.274Z,9.8
2018-06-28T04:10:33.604Z,11.5
2018-06-28T04:15:35.847Z,11.2
2018-06-28T04:20:38.105Z,8.7
2018-06-28T04:25:40.593Z,13.5
2018-06-28T04:30:42.696Z,11.9
2018-06-28T04:35:45.112Z,17.6
2018-06-28T04:40:47.382Z,12.5
2018-06-28T04:45:51.457Z,9.2
2018-06-28T04:50:52.019Z,13.6
2018-06-28T04:55:54.281Z,10.5
2018-06-28T05:00:56.616Z,12.1
2018-06-28T05:06:00.305Z,10.1
2018-06-28T05:11:01.077Z,11
2018-06-28T05:16:03.339Z,10.4
2018-06-28T05:21:05.742Z,10.3
2018-06-28T05:26:08.046Z,8.8
2018-06-28T05:31:10.269Z,7.6
2018-06-28T05:36:12.686Z,9.6
2018-06-28T05:41:15.008Z,7.8
2018-06-28T05:46:17.132Z,7.3
2018-06-28T05:51:20.895Z,10
2018-06-28T05:56:21.679Z,8.9
2018-06-28T06:01:24.038Z,6
2018-06-28T06:06:26.357Z,11.3
2018-06-28T06:11:28.628Z,7.7
2018-06-28T06:16:30.888Z,7.9
2018-06-28T06:21:33.321Z,7.2
2018-06-28T06:26:35.585Z,8.4
2018-06-28T06:31:37.772Z,7.6
2018-06-28T06:36:40.172Z,8.9
2018-06-28T06:41:42.332Z,5.6
2018-06-28T06:46:44.665Z,4.8
2018-06-28T06:51:48.563Z,8.1
2018-06-28T06:56:49.262Z,5.3
2018-06-28T07:01:52.980Z,5.9
2018-06-28T07:06:55.096Z,7.9
2018-06-28T07:11:56.260Z,3.9
2018-06-28T07:16:58.420Z,4.5
2018-06-28T07:22:00.851Z,3
2018-06-28T07:27:03.043Z,5
2018-06-28T07:32:05.461Z,2.6
2018-06-28T07:37:07.641Z,4.9
2018-06-28T07:42:09.914Z,4.9
2018-06-28T07:47:14.034Z,3.5
2018-06-28T07:52:14.578Z,2.8
2018-06-28T07:57:17.016Z,3.8
2018-06-28T08:02:19.073Z,3.6
2018-06-28T08:07:21.502Z,4.3
2018-06-28T08:12:23.604Z,2.3
2018-06-28T08:17:26.184Z,1.9
2018-06-28T08:22:28.204Z,3.6
2018-06-28T08:27:30.517Z,2.8
2018-06-28T08:32:33.048Z,2.7
2018-06-28T08:37:37.528Z,2.2
2018-06-28T08:47:39.810Z,3.3
2018-06-28T08:52:42.055Z,3
2018-06-28T08:57:45.442Z,2.1
2018-06-28T09:02:46.590Z,2.3
2018-06-28T09:07:48.909Z,1.8
2018-06-28T09:12:51.122Z,1.2
2018-06-28T09:17:53.655Z,1.7
2018-06-28T09:22:55.777Z,1.9
2018-06-28T09:27:58.058Z,1.5
2018-06-28T09:33:02.048Z,1.1
2018-06-28T09:38:02.628Z,1.8
2018-06-28T09:43:05.002Z,1.2
2018-06-28T09:48:07.372Z,2
2018-06-28T09:53:09.606Z,1.5
2018-06-28T09:58:11.792Z,1.6
2018-06-28T10:03:14.214Z,2.8
2018-06-28T10:08:16.344Z,1.5
2018-06-28T10:13:20.589Z,2.7
2018-06-28T10:18:21.212Z,2.4
2018-06-28T10:23:23.268Z,2.7
2018-06-28T10:28:25.639Z,1.9
2018-06-28T10:33:27.974Z,1.5
2018-06-28T10:38:30.191Z,1.6
2018-06-28T10:43:32.744Z,1.8
2018-06-28T10:48:35.020Z,2.4
2018-06-28T10:53:37.072Z,1
2018-06-28T10:58:39.459Z,1
2018-06-28T11:03:41.676Z,1.5
2018-06-28T11:08:43.888Z,2.3
2018-06-28T11:13:51.919Z,1.3
2018-06-28T11:18:48.544Z,2.3
2018-06-28T11:23:50.846Z,2.3
2018-06-28T11:28:53.228Z,2
2018-06-28T11:33:55.548Z,2
2018-06-28T11:38:59.619Z,0.8
2018-06-28T11:44:00.067Z,3
2018-06-28T11:49:02.460Z,2.2
2018-06-28T11:54:04.630Z,2
2018-06-28T11:59:06.876Z,2.3
2018-06-28T12:04:09.224Z,3.1
2018-06-28T12:09:11.547Z,2
2018-06-28T12:14:13.723Z,2
2018-06-28T12:19:16.279Z,2.1
2018-06-28T12:24:18.403Z,2.2
2018-06-28T12:29:20.799Z,2.9
2018-06-28T12:34:23.045Z,3.1
2018-06-28T12:39:25.237Z,2.9
2018-06-28T12:44:27.760Z,1.6
2018-06-28T12:49:30.030Z,2.7
2018-06-28T12:54:32.237Z,1.3
2018-06-28T12:59:34.521Z,1.5
2018-06-28T13:04:36.782Z,2.5
2018-06-28T13:09:39.073Z,1.5
2018-06-28T13:14:41.260Z,2.2
2018-06-28T13:24:45.969Z,1.1
2018-06-28T13:29:48.165Z,1.3
2018-06-28T13:34:50.594Z,1.7
2018-06-28T13:39:52.816Z,1.9
2018-06-28T13:44:55.150Z,1.6
2018-06-28T13:49:57.390Z,2.6
2018-06-28T13:54:59.713Z,1.2
2018-06-28T14:00:01.953Z,1.3
2018-06-28T14:05:04.346Z,2.2
2018-06-28T14:10:06.653Z,2.3
2018-06-28T14:20:11.265Z,1.1
2018-06-28T14:25:13.356Z,1.6
2018-06-28T14:30:15.735Z,1.8
2018-06-28T14:35:24.121Z,1.8
2018-06-28T14:40:20.341Z,2.5
2018-06-28T14:45:22.676Z,1.8
2018-06-28T14:50:24.871Z,1.4
2018-06-28T14:55:27.284Z,2.1
2018-06-28T15:00:29.430Z,2.6
2018-06-28T15:05:31.727Z,1.5
2018-06-28T15:10:34.209Z,2.6
2018-06-28T15:15:36.770Z,2.1
2018-06-28T15:20:38.692Z,1.6
2018-06-28T15:25:41.035Z,2.8
2018-06-28T15:30:43.357Z,2.2
2018-06-28T15:35:45.604Z,2.6
2018-06-28T15:40:47.900Z,1.7
2018-06-28T15:45:50.137Z,1.9
2018-06-28T15:50:52.543Z,3.8
2018-06-28T15:55:54.786Z,1.3
2018-06-28T16:00:56.998Z,2.9
2018-06-28T16:05:59.428Z,2.6
2018-06-28T16:11:01.714Z,0.9
2018-06-28T16:16:03.910Z,3.5
2018-06-28T16:21:06.347Z,2.5
2018-06-28T16:26:08.667Z,2.3
2018-06-28T16:31:10.850Z,2
2018-06-28T16:36:13.057Z,2.1
2018-06-28T16:41:15.491Z,1
2018-06-28T16:46:18.079Z,1.8
2018-06-28T16:51:19.973Z,2.2
2018-06-28T16:56:22.288Z,1.9
2018-06-28T17:01:24.673Z,1.1
2018-06-28T17:06:27.514Z,1.2
2018-06-28T17:11:29.248Z,2
2018-06-28T17:16:31.475Z,1.5
2018-06-28T17:21:33.751Z,1.3
2018-06-28T17:26:36.111Z,2.8
2018-06-28T17:31:38.334Z,2.2
2018-06-28T17:36:40.613Z,1.1
2018-06-28T17:41:43.165Z,1.3
2018-06-28T17:46:49.203Z,1.5
2018-06-28T17:51:47.486Z,2.5
2018-06-28T17:56:49.864Z,0.9
2018-06-28T18:01:52.044Z,2.2
2018-06-28T18:06:54.417Z,2
2018-06-28T18:11:56.796Z,1.4
2018-06-28T18:16:58.940Z,1
2018-06-28T18:22:01.331Z,1.6
2018-06-28T18:27:04.706Z,1.5
2018-06-28T18:32:05.791Z,2
2018-06-28T18:37:09.260Z,1.8
2018-06-28T18:42:10.609Z,2.2
2018-06-28T18:47:12.728Z,2.2
2018-06-28T18:52:15.013Z,2
2018-06-28T18:57:18.293Z,1.7
2018-06-28T19:02:19.711Z,1.8
2018-06-28T19:07:21.948Z,2.3
2018-06-28T19:12:24.275Z,1.8
2018-06-28T19:17:26.559Z,1
2018-06-28T19:22:28.775Z,1.6
2018-06-28T19:27:31.070Z,1.7
2018-06-28T19:32:33.597Z,1.7
2018-06-28T19:37:35.706Z,2.6
2018-06-28T19:42:37.982Z,2.8
2018-06-28T19:47:40.355Z,1.2
2018-06-28T19:52:42.501Z,1.6
2018-06-28T19:57:44.970Z,2.1
2018-06-28T20:02:47.338Z,1.1
2018-06-28T20:07:49.420Z,0.5
2018-06-28T20:12:52.883Z,2.7
2018-06-28T20:17:54.119Z,3.1
2018-06-28T20:22:56.415Z,2.6
2018-06-28T20:27:58.634Z,2.9
2018-06-28T20:33:00.979Z,2.1
2018-06-28T20:38:03.237Z,3.4
2018-06-28T20:43:05.674Z,1.2
2018-06-28T20:48:08.898Z,3.4
2018-06-28T20:53:11.451Z,2.7
2018-06-28T20:58:12.549Z,2.2
2018-06-28T21:03:14.946Z,1.2
2018-06-28T21:08:16.991Z,1.8
2018-06-28T21:13:19.304Z,2.9
2018-06-28T21:18:21.701Z,2.1
2018-06-28T21:23:23.827Z,2.3
2018-06-28T21:28:26.196Z,3.3
2018-06-28T21:33:28.529Z,1.5
2018-06-28T21:38:30.669Z,2.5
2018-06-28T21:43:33.047Z,2.7
2018-06-28T21:48:35.460Z,3.3
2018-06-28T21:53:37.670Z,2.1
2018-06-28T21:58:39.981Z,3.4
2018-06-28T22:03:42.285Z,2
2018-06-28T22:08:44.514Z,1.9
2018-06-28T22:13:46.802Z,1.5
2018-06-28T22:18:49.119Z,2.8
2018-06-28T22:23:51.426Z,3.1
2018-06-28T22:28:54.193Z,1.8
2018-06-28T22:33:56.012Z,1.5
2018-06-28T22:38:58.332Z,4.1
2018-06-28T22:44:00.574Z,2.1
2018-06-28T22:49:03.060Z,2.8
2018-06-28T22:54:05.220Z,2.8
2018-06-28T22:59:08.901Z,1.4
2018-06-28T23:04:09.748Z,2.7
2018-06-28T23:09:12.154Z,2.6
2018-06-28T23:14:14.328Z,1.6
2018-06-28T23:19:16.663Z,1.8
2018-06-28T23:24:19.007Z,1.4
2018-06-28T23:29:21.281Z,1.6
2018-06-28T23:34:25.245Z,1.2
2018-06-28T23:39:25.882Z,2.9
2018-06-28T23:44:28.120Z,1
2018-06-28T23:49:31.863Z,1.6
2018-06-28T23:54:32.826Z,1.7
2018-06-28T23:59:35.039Z,2.1
